createdAt,value
2019-02-17T00:00:53.992Z,7.57
2019-02-17T00:03:57.442Z,7.75
2019-02-17T00:07:00.409Z,7.89
2019-02-17T00:10:04.512Z,7.79
2019-02-17T00:13:07.557Z,7.67
2019-02-17T00:16:10.517Z,7.55
2019-02-17T00:19:13.848Z,7.47
2019-02-17T00:22:16.821Z,7.49
2019-02-17T00:25:20.514Z,7.65
2019-02-17T00:28:23.612Z,7.79
2019-02-17T00:31:26.949Z,7.85
2019-02-17T00:34:30.988Z,7.86
2019-02-17T00:37:34.043Z,7.86
2019-02-17T00:40:37.020Z,7.68
2019-02-17T00:43:39.960Z,7.66
2019-02-17T00:46:42.922Z,7.23
2019-02-17T00:49:46.273Z,7.42
2019-02-17T00:52:49.602Z,7.93
2019-02-17T00:55:53.283Z,8.13
2019-02-17T00:58:56.247Z,8.11
2019-02-17T01:01:59.991Z,7.76
2019-02-17T01:05:03.119Z,7.65
2019-02-17T01:08:06.380Z,7.34
2019-02-17T01:11:10.429Z,7.28
2019-02-17T01:14:13.932Z,7.38
2019-02-17T01:17:16.883Z,7.78
2019-02-17T01:20:19.824Z,7.66
2019-02-17T01:23:23.214Z,7.56
2019-02-17T01:26:26.528Z,7.62
2019-02-17T01:29:29.895Z,7.77
2019-02-17T01:32:33.218Z,7.84
2019-02-17T01:35:36.536Z,7.73
2019-02-17T01:38:39.873Z,7.39
2019-02-17T01:41:43.951Z,7.60
2019-02-17T01:44:46.967Z,7.66
2019-02-17T01:47:50.348Z,7.39
2019-02-17T01:50:53.692Z,7.39
2019-02-17T01:53:56.987Z,7.62
2019-02-17T01:57:00.321Z,7.33
2019-02-17T02:00:04.433Z,7.77
2019-02-17T02:03:09.668Z,7.74
2019-02-17T02:06:12.652Z,7.56
2019-02-17T02:09:15.600Z,7.47
2019-02-17T02:12:18.668Z,7.41
2019-02-17T02:15:21.630Z,7.33
2019-02-17T02:18:24.571Z,7.49
2019-02-17T02:21:27.576Z,7.36
2019-02-17T02:24:30.537Z,7.34
2019-02-17T02:27:33.820Z,7.27
2019-02-17T02:30:36.778Z,7.24
2019-02-17T02:33:39.729Z,7.21
2019-02-17T02:36:43.081Z,7.03
2019-02-17T02:39:46.020Z,7.22
2019-02-17T02:42:49.740Z,6.95
2019-02-17T02:45:53.110Z,6.93
2019-02-17T02:48:56.321Z,7.11
2019-02-17T02:51:59.665Z,7.04
2019-02-17T02:55:02.713Z,7.26
2019-02-17T02:58:05.766Z,7.17
2019-02-17T03:01:10.437Z,7.25
2019-02-17T03:04:13.719Z,7.08
2019-02-17T03:07:19.675Z,7.20
2019-02-17T03:10:22.608Z,7.04
2019-02-17T03:13:25.958Z,6.90
2019-02-17T03:16:29.190Z,6.79
2019-02-17T03:19:32.278Z,6.79
2019-02-17T03:22:35.251Z,7.08
2019-02-17T03:25:38.529Z,6.89
2019-02-17T03:28:42.219Z,6.94
2019-02-17T03:31:45.474Z,7.07
2019-02-17T03:34:48.456Z,6.68
2019-02-17T03:37:51.855Z,6.79
2019-02-17T03:40:54.796Z,6.61
2019-02-17T03:43:58.131Z,6.87
2019-02-17T03:47:01.393Z,6.68
2019-02-17T03:50:05.157Z,6.47
2019-02-17T03:53:08.088Z,6.40
2019-02-17T03:56:11.844Z,6.51
2019-02-17T03:59:15.911Z,6.59
2019-02-17T04:02:18.845Z,6.61
2019-02-17T04:05:21.801Z,6.30
2019-02-17T04:08:25.368Z,6.37
2019-02-17T04:11:28.667Z,6.27
2019-02-17T04:14:31.631Z,5.91
2019-02-17T04:17:34.596Z,6.06
2019-02-17T04:20:37.909Z,5.84
2019-02-17T04:23:40.843Z,5.77
2019-02-17T04:26:43.827Z,5.95
2019-02-17T04:29:46.760Z,5.62
2019-02-17T04:32:50.084Z,6.19
2019-02-17T04:35:53.633Z,5.83
2019-02-17T04:38:57.635Z,5.90
2019-02-17T04:42:00.597Z,6.05
2019-02-17T04:45:04.213Z,6.21
2019-02-17T04:48:09.124Z,6.20
2019-02-17T04:51:12.086Z,6.04
2019-02-17T04:54:15.361Z,6.45
2019-02-17T04:57:18.327Z,6.33
2019-02-17T05:00:21.289Z,6.53
2019-02-17T05:03:24.231Z,6.15
2019-02-17T05:06:27.193Z,6.13
2019-02-17T05:09:30.124Z,5.97
2019-02-17T05:12:33.080Z,6.29
2019-02-17T05:15:37.183Z,5.94
2019-02-17T05:18:40.137Z,6.20
2019-02-17T05:21:43.497Z,6.21
2019-02-17T05:24:46.831Z,6.17
2019-02-17T05:27:49.791Z,6.00
2019-02-17T05:30:53.544Z,6.08
2019-02-17T05:33:57.350Z,5.82
2019-02-17T05:37:00.314Z,5.88
2019-02-17T05:40:03.739Z,5.50
2019-02-17T05:43:07.117Z,5.68
2019-02-17T05:46:10.079Z,5.80
2019-02-17T05:49:13.039Z,5.75
2019-02-17T05:52:16.371Z,5.67
2019-02-17T05:55:19.306Z,5.73
2019-02-17T05:58:22.356Z,5.79
2019-02-17T06:01:25.670Z,5.66
2019-02-17T06:04:29.017Z,5.85
2019-02-17T06:07:32.645Z,5.78
2019-02-17T06:10:35.680Z,5.96
2019-02-17T06:13:38.639Z,5.74
2019-02-17T06:16:41.602Z,5.83
2019-02-17T06:19:44.573Z,5.63
2019-02-17T06:22:48.237Z,5.86
2019-02-17T06:25:51.509Z,5.79
2019-02-17T06:28:54.882Z,5.86
2019-02-17T06:31:57.809Z,5.95
2019-02-17T06:35:01.165Z,6.10
2019-02-17T06:38:04.428Z,5.83
2019-02-17T06:41:07.372Z,5.67
2019-02-17T06:44:10.338Z,5.96
2019-02-17T06:47:20.496Z,6.01
2019-02-17T06:50:23.445Z,5.92
2019-02-17T06:53:27.153Z,5.93
2019-02-17T06:56:44.274Z,5.67
2019-02-17T06:59:48.333Z,5.61
2019-02-17T07:02:51.674Z,5.70
2019-02-17T07:06:14.566Z,5.72
2019-02-17T07:09:17.852Z,5.82
2019-02-17T07:12:20.795Z,5.94
2019-02-17T07:15:23.744Z,5.89
2019-02-17T07:18:27.607Z,5.61
2019-02-17T07:21:31.245Z,5.88
2019-02-17T07:24:34.563Z,5.96
2019-02-17T07:27:37.527Z,5.97
2019-02-17T07:30:40.492Z,5.76
2019-02-17T07:33:43.428Z,6.05
2019-02-17T07:36:46.725Z,6.33
2019-02-17T07:39:50.105Z,6.23
2019-02-17T07:42:53.405Z,6.31
2019-02-17T07:45:57.123Z,6.25
2019-02-17T07:49:00.089Z,6.39
2019-02-17T07:52:03.049Z,6.30
2019-02-17T07:55:07.507Z,6.20
2019-02-17T07:58:10.784Z,6.34
2019-02-17T08:01:13.740Z,6.40
2019-02-17T08:04:16.676Z,6.61
2019-02-17T08:07:19.939Z,6.60
2019-02-17T08:10:23.293Z,6.69
2019-02-17T08:13:26.249Z,6.58
2019-02-17T08:16:29.229Z,6.49
2019-02-17T08:19:33.021Z,7.03
2019-02-17T08:22:35.991Z,7.01
2019-02-17T08:25:38.934Z,7.66
2019-02-17T08:28:42.655Z,7.86
2019-02-17T08:31:55.505Z,8.28
2019-02-17T08:34:53.267Z,8.55
2019-02-17T08:37:56.704Z,8.65
2019-02-17T08:41:00.839Z,8.67
2019-02-17T08:44:03.948Z,8.67
2019-02-17T08:47:07.240Z,9.07
2019-02-17T08:50:10.565Z,9.11
2019-02-17T08:53:13.878Z,9.09
2019-02-17T08:56:18.650Z,9.13
2019-02-17T08:59:22.789Z,9.38
2019-02-17T09:02:26.518Z,9.34
2019-02-17T09:05:29.481Z,9.57
2019-02-17T09:08:32.816Z,9.60
2019-02-17T09:11:35.756Z,9.72
2019-02-17T09:14:39.412Z,9.73
2019-02-17T09:17:42.368Z,9.75
2019-02-17T09:20:45.709Z,9.93
2019-02-17T09:26:52.480Z,10.25
2019-02-17T09:29:55.469Z,9.88
2019-02-17T09:32:58.676Z,9.99
2019-02-17T09:36:02.019Z,9.87
2019-02-17T09:39:08.453Z,10.40
2019-02-17T09:42:11.406Z,10.62
2019-02-17T09:45:15.892Z,10.44
2019-02-17T09:48:18.825Z,10.63
2019-02-17T09:51:22.906Z,10.61
2019-02-17T09:54:26.665Z,10.82
2019-02-17T09:57:29.644Z,11.27
2019-02-17T10:00:32.597Z,10.98
2019-02-17T10:03:35.542Z,11.07
2019-02-17T10:06:38.891Z,10.79
2019-02-17T10:09:42.109Z,11.12
2019-02-17T10:12:45.915Z,11.44
2019-02-17T10:15:48.861Z,11.24
2019-02-17T10:18:52.809Z,11.48
2019-02-17T10:21:56.208Z,11.70
2019-02-17T10:24:59.495Z,12.01
2019-02-17T10:28:02.448Z,11.80
2019-02-17T10:31:06.211Z,11.83
2019-02-17T10:34:09.158Z,12.20
2019-02-17T10:37:13.226Z,12.23
2019-02-17T10:40:16.323Z,12.23
2019-02-17T10:43:20.035Z,12.13
2019-02-17T10:46:23.369Z,12.43
2019-02-17T10:49:27.099Z,12.28
2019-02-17T10:52:33.516Z,12.36
2019-02-17T11:01:39.376Z,12.22
2019-02-17T11:04:43.229Z,12.37
2019-02-17T11:07:46.467Z,13.12
2019-02-17T11:10:50.175Z,13.05
2019-02-17T11:13:53.833Z,12.99
2019-02-17T11:16:57.189Z,13.17
2019-02-17T11:20:00.899Z,12.78
2019-02-17T11:23:04.326Z,13.25
2019-02-17T11:26:07.373Z,13.27
2019-02-17T11:29:10.344Z,13.63
2019-02-17T11:32:13.643Z,13.69
2019-02-17T11:35:16.921Z,13.89
2019-02-17T11:38:21.093Z,14.54
2019-02-17T11:41:24.054Z,14.55
2019-02-17T11:44:27.838Z,15.38
2019-02-17T11:47:31.468Z,18.12
2019-02-17T11:50:34.444Z,17.02
2019-02-17T11:53:37.447Z,18.60
2019-02-17T11:56:42.382Z,19.05
2019-02-17T11:59:45.809Z,19.70
2019-02-17T12:02:48.771Z,19.62
2019-02-17T12:05:51.762Z,19.44
2019-02-17T12:08:54.724Z,19.34
2019-02-17T12:11:57.673Z,19.43
2019-02-17T12:15:00.644Z,19.96
2019-02-17T12:18:03.946Z,20.52
2019-02-17T12:21:12.869Z,19.90
2019-02-17T12:24:22.282Z,19.60
2019-02-17T12:27:33.114Z,19.55
2019-02-17T12:30:37.120Z,18.11
2019-02-17T12:33:40.073Z,17.17
2019-02-17T12:36:44.804Z,17.24
2019-02-17T12:39:47.768Z,16.64
2019-02-17T12:42:51.237Z,16.36
2019-02-17T12:45:55.384Z,15.90
2019-02-17T12:48:58.356Z,16.09
2019-02-17T12:52:02.094Z,16.76
2019-02-17T12:55:05.482Z,17.35
2019-02-17T12:58:08.880Z,16.23
2019-02-17T13:01:13.549Z,15.71
2019-02-17T13:04:16.588Z,15.06
2019-02-17T13:07:19.931Z,15.17
2019-02-17T13:10:22.874Z,15.59
2019-02-17T13:13:25.833Z,15.99
2019-02-17T13:16:29.468Z,16.84
2019-02-17T13:19:33.174Z,16.81
2019-02-17T13:22:36.977Z,16.28
2019-02-17T13:25:39.955Z,16.32
2019-02-17T13:28:42.962Z,16.16
2019-02-17T13:31:46.252Z,16.15
2019-02-17T13:34:49.245Z,15.94
2019-02-17T13:37:52.591Z,15.41
2019-02-17T13:40:55.537Z,16.31
2019-02-17T13:43:58.493Z,16.33
2019-02-17T13:47:02.120Z,16.40
2019-02-17T13:50:06.957Z,15.58
2019-02-17T13:53:11.935Z,15.56
2019-02-17T13:56:15.605Z,16.07
2019-02-17T13:59:18.571Z,15.28
2019-02-17T14:02:23.018Z,15.78
2019-02-17T14:05:25.988Z,15.75
2019-02-17T14:08:31.264Z,15.72
2019-02-17T14:11:33.890Z,15.31
2019-02-17T14:14:38.789Z,14.96
2019-02-17T14:17:41.995Z,15.47
2019-02-17T14:20:45.372Z,15.02
2019-02-17T14:23:48.640Z,14.79
2019-02-17T14:26:51.912Z,15.47
2019-02-17T14:29:54.885Z,15.32
2019-02-17T14:32:57.837Z,15.07
2019-02-17T14:36:01.066Z,15.08
2019-02-17T14:39:05.968Z,14.55
2019-02-17T14:42:10.870Z,15.01
2019-02-17T14:45:14.071Z,14.68
2019-02-17T14:48:17.464Z,14.89
2019-02-17T14:51:20.431Z,14.59
2019-02-17T14:54:23.728Z,14.78
2019-02-17T14:57:26.719Z,14.30
2019-02-17T15:00:29.684Z,14.51
2019-02-17T15:06:42.271Z,14.49
2019-02-17T15:09:45.240Z,14.70
2019-02-17T15:12:48.228Z,14.58
2019-02-17T15:15:51.193Z,14.44
2019-02-17T15:18:54.941Z,14.17
2019-02-17T15:21:57.935Z,14.33
2019-02-17T15:25:01.443Z,14.05
2019-02-17T15:28:04.818Z,14.16
2019-02-17T15:31:07.820Z,14.17
2019-02-17T15:34:18.386Z,13.94
2019-02-17T15:37:15.664Z,13.86
2019-02-17T15:40:19.614Z,13.93
2019-02-17T15:43:22.587Z,13.68
2019-02-17T15:46:25.527Z,13.67
2019-02-17T15:49:28.870Z,13.53
2019-02-17T15:52:31.845Z,13.30
2019-02-17T15:55:36.158Z,13.12
2019-02-17T15:58:39.502Z,12.98
2019-02-17T16:01:42.441Z,12.79
2019-02-17T16:04:46.105Z,12.67
2019-02-17T16:07:49.433Z,12.49
2019-02-17T16:10:52.688Z,12.36
2019-02-17T16:13:55.976Z,12.15
2019-02-17T16:16:59.699Z,12.16
2019-02-17T16:20:02.926Z,12.07
2019-02-17T16:23:05.876Z,11.92
2019-02-17T16:26:09.220Z,11.95
2019-02-17T16:29:12.224Z,11.81
2019-02-17T16:32:15.953Z,11.88
2019-02-17T16:35:19.248Z,11.63
2019-02-17T16:38:22.631Z,11.57
2019-02-17T16:41:26.186Z,11.56
2019-02-17T16:44:29.593Z,11.34
2019-02-17T16:47:32.613Z,11.25
2019-02-17T16:50:35.579Z,11.32
2019-02-17T16:53:40.157Z,11.13
2019-02-17T16:56:43.106Z,10.99
2019-02-17T16:59:46.073Z,11.06
2019-02-17T17:02:49.116Z,11.07
2019-02-17T17:05:52.845Z,10.97
2019-02-17T17:08:56.353Z,10.77
2019-02-17T17:12:00.084Z,10.71
2019-02-17T17:15:03.281Z,10.99
2019-02-17T17:18:07.800Z,11.11
2019-02-17T17:21:10.752Z,10.76
2019-02-17T17:24:14.031Z,10.90
2019-02-17T17:27:17.538Z,10.58
2019-02-17T17:30:20.522Z,10.69
2019-02-17T17:33:23.460Z,10.87
2019-02-17T17:36:27.074Z,10.89
2019-02-17T17:39:30.911Z,10.86
2019-02-17T17:42:34.299Z,10.72
2019-02-17T17:45:37.943Z,11.13
2019-02-17T17:48:42.400Z,11.11
2019-02-17T17:51:46.142Z,11.05
2019-02-17T17:54:50.174Z,11.27
2019-02-17T17:57:53.924Z,11.20
2019-02-17T18:00:57.990Z,11.16
2019-02-17T18:04:01.600Z,11.75
2019-02-17T18:07:04.556Z,11.73
2019-02-17T18:10:10.713Z,11.77
2019-02-17T18:13:14.684Z,11.85
2019-02-17T18:16:17.971Z,12.08
2019-02-17T18:19:21.037Z,12.09
2019-02-17T18:22:23.983Z,12.19
2019-02-17T18:25:26.941Z,12.17
2019-02-17T18:28:30.287Z,12.17
2019-02-17T18:31:33.384Z,12.21
2019-02-17T18:34:36.347Z,12.23
2019-02-17T18:37:39.696Z,12.30
2019-02-17T18:40:44.920Z,12.18
2019-02-17T18:43:48.336Z,12.20
2019-02-17T18:46:51.301Z,12.12
2019-02-17T18:49:54.262Z,12.24
2019-02-17T18:52:58.016Z,12.21
2019-02-17T18:56:01.401Z,12.26
2019-02-17T18:59:04.445Z,12.24
2019-02-17T19:02:07.512Z,12.09
2019-02-17T19:05:10.679Z,12.02
2019-02-17T19:08:13.643Z,12.08
2019-02-17T19:11:17.382Z,11.90
2019-02-17T19:14:20.680Z,12.12
2019-02-17T19:17:23.966Z,12.10
2019-02-17T19:20:26.973Z,11.91
2019-02-17T19:23:30.238Z,12.01
2019-02-17T19:26:33.600Z,11.76
2019-02-17T19:29:37.102Z,11.75
2019-02-17T19:32:40.130Z,11.75
2019-02-17T19:35:43.094Z,11.82
2019-02-17T19:38:46.326Z,11.88
2019-02-17T19:41:50.319Z,11.91
2019-02-17T19:44:53.268Z,11.93
2019-02-17T19:47:56.229Z,11.82
2019-02-17T19:50:59.190Z,11.68
2019-02-17T19:54:02.143Z,11.65
2019-02-17T19:57:05.477Z,11.63
2019-02-17T20:00:11.024Z,11.78
2019-02-17T20:03:32.864Z,11.71
2019-02-17T20:06:36.575Z,11.88
2019-02-17T20:09:39.930Z,11.89
2019-02-17T20:12:43.329Z,11.79
2019-02-17T20:15:46.273Z,11.85
2019-02-17T20:18:49.246Z,11.79
2019-02-17T20:21:52.204Z,11.95
2019-02-17T20:24:55.276Z,11.82
2019-02-17T20:27:58.239Z,11.77
2019-02-17T20:31:01.289Z,11.80
2019-02-17T20:34:04.599Z,11.67
2019-02-17T20:37:07.607Z,11.55
2019-02-17T20:40:10.599Z,11.52
2019-02-17T20:43:13.565Z,11.63
2019-02-17T20:46:16.525Z,11.54
2019-02-17T20:49:19.881Z,11.55
2019-02-17T20:52:22.850Z,11.40
2019-02-17T20:55:26.140Z,11.50
2019-02-17T20:58:29.116Z,11.50
2019-02-17T21:01:32.445Z,11.47
2019-02-17T21:04:35.544Z,11.58
2019-02-17T21:07:38.931Z,11.57
2019-02-17T21:10:41.876Z,11.54
2019-02-17T21:13:45.170Z,11.57
2019-02-17T21:16:48.144Z,11.60
2019-02-17T21:19:52.581Z,11.55
2019-02-17T21:22:56.791Z,11.67
2019-02-17T21:25:59.723Z,11.80
2019-02-17T21:29:03.614Z,11.60
2019-02-17T21:32:06.662Z,11.66
2019-02-17T21:35:11.136Z,11.66
2019-02-17T21:38:14.469Z,11.59
2019-02-17T21:41:17.831Z,11.66
2019-02-17T21:44:21.475Z,11.61
2019-02-17T21:47:24.456Z,11.39
2019-02-17T21:50:27.514Z,11.22
2019-02-17T21:53:30.453Z,11.02
2019-02-17T21:56:34.092Z,11.15
2019-02-17T21:59:37.360Z,11.30
2019-02-17T22:02:41.128Z,11.06
2019-02-17T22:05:44.997Z,11.13
2019-02-17T22:08:47.964Z,11.12
2019-02-17T22:11:51.480Z,10.69
2019-02-17T22:14:55.523Z,10.63
2019-02-17T22:17:59.008Z,10.84
2019-02-17T22:21:02.306Z,10.69
2019-02-17T22:24:05.904Z,10.84
2019-02-17T22:27:08.998Z,10.87
2019-02-17T22:30:12.110Z,10.79
2019-02-17T22:33:15.173Z,10.61
2019-02-17T22:36:18.247Z,10.58
2019-02-17T22:39:21.669Z,10.47
2019-02-17T22:42:25.177Z,10.36
2019-02-17T22:45:29.387Z,10.34
2019-02-17T22:48:32.667Z,10.38
2019-02-17T22:51:35.980Z,10.58
2019-02-17T22:54:39.034Z,10.52
2019-02-17T22:57:42.457Z,10.23
2019-02-17T23:01:00.715Z,10.33
2019-02-17T23:04:06.047Z,10.27
2019-02-17T23:07:09.191Z,10.14
2019-02-17T23:10:12.435Z,10.21
2019-02-17T23:13:15.497Z,10.03
2019-02-17T23:16:18.532Z,9.81
2019-02-17T23:19:21.495Z,9.75
2019-02-17T23:22:24.833Z,9.73
2019-02-17T23:25:28.138Z,9.99
2019-02-17T23:28:31.504Z,9.74
2019-02-17T23:31:34.555Z,9.75
2019-02-17T23:34:37.513Z,9.78
2019-02-17T23:37:40.790Z,9.62
2019-02-17T23:40:43.749Z,9.62
2019-02-17T23:43:46.723Z,9.59
2019-02-17T23:46:50.389Z,9.42
2019-02-17T23:49:53.666Z,9.63
2019-02-17T23:52:56.621Z,9.72
2019-02-17T23:55:59.955Z,9.57
2019-02-17T23:59:03.211Z,9.40
